createdAt,value
2018-07-12T00:01:56.917Z,99.90
2018-07-12T00:04:25.860Z,99.90
2018-07-12T00:06:54.350Z,99.90
2018-07-12T00:11:51.958Z,99.90
2018-07-12T00:14:21.006Z,99.90
2018-07-12T00:16:50.159Z,99.90
2018-07-12T00:19:19.195Z,99.90
2018-07-12T00:21:48.035Z,99.90
2018-07-12T00:24:17.197Z,99.90
2018-07-12T00:26:46.142Z,99.90
2018-07-12T00:29:14.875Z,99.90
2018-07-12T00:31:43.506Z,99.90
2018-07-12T00:34:12.032Z,99.90
2018-07-12T00:36:41.080Z,99.90
2018-07-12T00:39:09.920Z,99.90
2018-07-12T00:41:38.865Z,99.90
2018-07-12T00:44:07.390Z,99.90
2018-07-12T00:46:35.915Z,99.90
2018-07-12T00:49:04.849Z,99.90
2018-07-12T00:51:33.079Z,99.90
2018-07-12T00:54:02.404Z,99.90
2018-07-12T00:56:31.375Z,99.90
2018-07-12T00:59:00.841Z,99.90
2018-07-12T01:03:58.206Z,99.90
2018-07-12T01:06:26.984Z,99.90
2018-07-12T01:08:55.154Z,99.90
2018-07-12T01:11:25.027Z,99.90
2018-07-12T01:13:53.866Z,99.90
2018-07-12T01:16:22.506Z,99.90
2018-07-12T01:18:51.033Z,99.90
2018-07-12T01:21:20.290Z,99.90
2018-07-12T01:23:49.024Z,99.90
2018-07-12T01:26:17.967Z,99.90
2018-07-12T01:28:46.493Z,99.90
2018-07-12T01:31:15.213Z,99.90
2018-07-12T01:33:44.170Z,99.90
2018-07-12T01:36:13.256Z,99.90
2018-07-12T01:38:41.849Z,99.90
2018-07-12T01:41:10.374Z,99.90
2018-07-12T01:43:38.900Z,99.90
2018-07-12T01:46:08.018Z,99.90
2018-07-12T01:48:37.595Z,99.90
2018-07-12T01:51:06.880Z,99.90
2018-07-12T01:53:35.393Z,99.90
2018-07-12T01:56:03.899Z,99.90
2018-07-12T01:58:32.426Z,99.90
2018-07-12T02:01:01.703Z,99.90
2018-07-12T02:03:30.753Z,99.90
2018-07-12T02:06:00.194Z,99.90
2018-07-12T02:08:30.007Z,99.90
2018-07-12T02:10:59.044Z,99.90
2018-07-12T02:13:28.311Z,99.90
2018-07-12T02:15:57.973Z,99.90
2018-07-12T02:18:27.858Z,99.90
2018-07-12T02:20:56.383Z,99.90
2018-07-12T02:23:25.128Z,99.90
2018-07-12T02:25:54.165Z,99.90
2018-07-12T02:28:22.878Z,99.90
2018-07-12T02:30:52.134Z,99.90
2018-07-12T02:33:21.206Z,99.90
2018-07-12T02:35:49.606Z,99.90
2018-07-12T02:38:18.794Z,99.90
2018-07-12T02:40:47.826Z,99.90
2018-07-12T02:43:16.991Z,99.90
2018-07-12T02:45:46.056Z,99.90
2018-07-12T02:48:15.088Z,99.90
2018-07-12T02:50:43.578Z,99.90
2018-07-12T02:53:12.560Z,99.90
2018-07-12T02:55:41.294Z,99.90
2018-07-12T02:58:10.026Z,99.90
2018-07-12T03:00:38.656Z,99.90
2018-07-12T03:03:07.907Z,99.90
2018-07-12T03:05:37.158Z,99.90
2018-07-12T03:08:05.696Z,99.90
2018-07-12T03:10:35.371Z,99.90
2018-07-12T03:13:03.961Z,99.90
2018-07-12T03:15:32.944Z,99.90
2018-07-12T03:18:01.538Z,99.90
2018-07-12T03:22:59.252Z,99.90
2018-07-12T03:25:27.950Z,99.90
2018-07-12T03:27:58.386Z,99.90
2018-07-12T03:30:26.919Z,99.90
2018-07-12T03:32:55.849Z,99.90
2018-07-12T03:35:25.842Z,99.90
2018-07-12T03:37:54.167Z,99.90
2018-07-12T03:40:22.699Z,99.90
2018-07-12T03:42:51.834Z,99.90
2018-07-12T03:45:20.892Z,99.90
2018-07-12T03:47:50.150Z,99.90
2018-07-12T03:50:19.406Z,99.90
2018-07-12T03:52:49.075Z,99.90
2018-07-12T03:55:18.119Z,99.90
2018-07-12T03:57:47.285Z,99.90
2018-07-12T04:00:16.330Z,99.90
2018-07-12T04:02:44.855Z,99.90
2018-07-12T04:05:13.903Z,99.90
2018-07-12T04:07:43.055Z,99.90
2018-07-12T04:10:11.759Z,99.90
2018-07-12T04:12:41.674Z,99.90
2018-07-12T04:15:10.616Z,99.90
2018-07-12T04:17:39.561Z,99.90
2018-07-12T04:20:08.597Z,99.90
2018-07-12T04:22:37.962Z,99.90
2018-07-12T04:25:06.902Z,99.90
2018-07-12T04:27:36.054Z,99.90
2018-07-12T04:30:05.119Z,99.90
2018-07-12T04:32:34.580Z,99.90
2018-07-12T04:35:03.304Z,99.90
2018-07-12T04:37:31.945Z,99.90
2018-07-12T04:40:00.433Z,99.90
2018-07-12T04:42:28.996Z,99.90
2018-07-12T04:44:57.940Z,99.90
2018-07-12T04:47:27.186Z,99.90
2018-07-12T04:49:55.826Z,99.90
2018-07-12T04:52:24.770Z,99.90
2018-07-12T04:54:53.754Z,99.90
2018-07-12T04:57:22.755Z,99.90
2018-07-12T04:59:52.122Z,99.90
2018-07-12T05:02:20.753Z,99.90
2018-07-12T05:04:49.279Z,99.90
2018-07-12T05:07:18.535Z,99.90
2018-07-12T05:09:47.584Z,99.90
2018-07-12T05:12:16.630Z,99.90
2018-07-12T05:14:45.156Z,99.90
2018-07-12T05:17:14.276Z,99.90
2018-07-12T05:19:42.862Z,99.90
2018-07-12T05:22:12.092Z,99.90
2018-07-12T05:24:41.963Z,99.90
2018-07-12T05:27:11.128Z,99.90
2018-07-12T05:29:41.078Z,99.90
2018-07-12T05:32:10.671Z,99.90
2018-07-12T05:34:39.621Z,99.90
2018-07-12T05:37:09.186Z,99.90
2018-07-12T05:39:38.711Z,99.90
2018-07-12T05:42:10.493Z,99.90
2018-07-12T05:44:40.208Z,99.90
2018-07-12T05:47:10.196Z,99.90
2018-07-12T05:49:40.044Z,99.90
2018-07-12T05:52:11.359Z,99.90
2018-07-12T05:54:42.008Z,99.90
2018-07-12T05:57:12.838Z,99.90
2018-07-12T05:59:43.426Z,99.90
2018-07-12T06:02:21.059Z,99.90
2018-07-12T06:04:51.038Z,99.90
2018-07-12T06:07:27.561Z,99.90
2018-07-12T06:09:57.186Z,99.90
2018-07-12T06:12:27.274Z,99.90
2018-07-12T06:14:57.742Z,99.90
2018-07-12T06:17:28.934Z,99.90
2018-07-12T06:19:58.841Z,99.90
2018-07-12T06:22:29.006Z,99.90
2018-07-12T06:24:58.921Z,99.90
2018-07-12T06:27:29.462Z,99.90
2018-07-12T06:30:00.225Z,99.90
2018-07-12T06:32:29.973Z,99.90
2018-07-12T06:35:00.429Z,99.90
2018-07-12T06:37:30.219Z,99.90
2018-07-12T06:40:00.488Z,99.90
2018-07-12T06:42:29.660Z,99.90
2018-07-12T06:44:59.451Z,99.90
2018-07-12T06:47:28.985Z,99.90
2018-07-12T06:49:58.905Z,99.90
2018-07-12T06:52:29.582Z,99.90
2018-07-12T06:54:59.110Z,99.90
2018-07-12T06:57:29.778Z,99.90
2018-07-12T07:00:01.067Z,99.90
2018-07-12T07:02:31.631Z,99.90
2018-07-12T07:05:01.869Z,99.90
2018-07-12T07:07:32.414Z,99.90
2018-07-12T07:10:01.902Z,99.90
2018-07-12T07:12:31.054Z,99.90
2018-07-12T07:15:00.942Z,99.90
2018-07-12T07:17:31.462Z,99.90
2018-07-12T07:20:00.803Z,99.90
2018-07-12T07:22:30.838Z,99.90
2018-07-12T07:25:01.614Z,99.90
2018-07-12T07:27:32.107Z,99.90
2018-07-12T07:32:32.150Z,99.90
2018-07-12T07:35:03.410Z,99.90
2018-07-12T07:37:33.902Z,99.90
2018-07-12T07:40:04.867Z,99.90
2018-07-12T07:45:03.258Z,99.90
2018-07-12T07:50:02.038Z,99.90
2018-07-12T07:52:31.845Z,99.90
2018-07-12T07:55:02.583Z,99.90
2018-07-12T07:57:32.655Z,99.90
2018-07-12T08:00:02.819Z,99.90
2018-07-12T08:02:34.211Z,99.90
2018-07-12T08:05:04.186Z,99.90
2018-07-12T08:07:35.312Z,99.90
2018-07-12T08:10:06.031Z,99.90
2018-07-12T08:12:35.926Z,99.90
2018-07-12T08:15:07.065Z,99.90
2018-07-12T08:17:38.590Z,99.90
2018-07-12T08:20:08.325Z,99.90
2018-07-12T08:22:38.758Z,99.90
2018-07-12T08:25:08.230Z,99.90
2018-07-12T08:27:44.627Z,99.90
2018-07-12T08:30:14.198Z,99.90
2018-07-12T08:32:44.146Z,99.90
2018-07-12T08:35:13.806Z,99.90
2018-07-12T08:37:44.711Z,99.90
2018-07-12T08:40:15.726Z,99.90
2018-07-12T08:42:45.755Z,99.90
2018-07-12T08:45:16.840Z,99.90
2018-07-12T08:47:47.664Z,99.90
2018-07-12T08:50:18.433Z,99.90
2018-07-12T08:52:48.236Z,99.90
2018-07-12T08:55:18.361Z,99.90
2018-07-12T08:57:48.651Z,99.90
2018-07-12T09:00:17.752Z,99.90
2018-07-12T09:02:47.952Z,99.90
2018-07-12T09:05:19.107Z,99.90
2018-07-12T09:07:49.154Z,99.90
2018-07-12T09:12:47.846Z,99.90
2018-07-12T09:15:17.010Z,99.90
2018-07-12T09:17:46.893Z,99.90
2018-07-12T09:20:17.851Z,99.90
2018-07-12T09:22:47.958Z,99.90
2018-07-12T09:25:17.733Z,99.90
2018-07-12T09:27:47.793Z,99.70
2018-07-12T09:30:18.713Z,99.90
2018-07-12T09:32:49.331Z,99.90
2018-07-12T09:35:23.690Z,99.90
2018-07-12T09:37:53.282Z,99.90
2018-07-12T09:40:22.961Z,99.90
2018-07-12T09:42:53.172Z,99.90
2018-07-12T09:45:23.618Z,99.90
2018-07-12T09:47:53.046Z,99.90
2018-07-12T09:50:24.042Z,99.90
2018-07-12T09:52:54.155Z,99.90
2018-07-12T09:55:24.434Z,99.90
2018-07-12T09:58:05.606Z,99.90
2018-07-12T10:00:41.327Z,99.90
2018-07-12T10:05:54.881Z,99.90
2018-07-12T10:09:31.206Z,99.90
2018-07-12T10:12:06.718Z,99.90
2018-07-12T10:14:42.113Z,99.90
2018-07-12T10:17:18.091Z,99.90
2018-07-12T10:19:47.843Z,99.90
2018-07-12T10:22:18.798Z,99.90
2018-07-12T10:24:48.670Z,99.90
2018-07-12T10:27:19.314Z,99.90
2018-07-12T10:29:49.749Z,99.90
2018-07-12T10:32:21.206Z,99.50
2018-07-12T10:34:51.465Z,99.20
2018-07-12T10:39:52.149Z,99.90
2018-07-12T10:42:21.940Z,99.00
2018-07-12T10:44:51.174Z,97.60
2018-07-12T10:47:21.591Z,98.10
2018-07-12T10:49:50.858Z,98.00
2018-07-12T10:52:20.791Z,98.70
2018-07-12T10:54:50.214Z,98.20
2018-07-12T10:57:20.650Z,98.50
2018-07-12T10:59:51.672Z,98.40
2018-07-12T11:02:21.948Z,97.30
2018-07-12T11:04:52.942Z,96.30
2018-07-12T11:07:23.531Z,96.20
2018-07-12T11:09:53.546Z,96.50
2018-07-12T11:12:23.158Z,97.40
2018-07-12T11:14:53.006Z,97.40
2018-07-12T11:17:22.470Z,95.80
2018-07-12T11:19:52.734Z,96.70
2018-07-12T11:22:23.212Z,95.50
2018-07-12T11:24:54.037Z,95.30
2018-07-12T11:27:25.875Z,95.60
2018-07-12T11:29:56.830Z,96.00
2018-07-12T11:32:26.783Z,95.90
2018-07-12T11:34:56.866Z,95.40
2018-07-12T11:37:28.864Z,95.50
2018-07-12T11:40:00.024Z,96.00
2018-07-12T11:42:29.902Z,93.50
2018-07-12T11:44:59.982Z,93.20
2018-07-12T11:47:30.758Z,92.30
2018-07-12T11:50:00.955Z,93.00
2018-07-12T11:52:30.784Z,93.20
2018-07-12T11:55:00.978Z,90.70
2018-07-12T11:57:30.925Z,91.70
2018-07-12T12:00:00.827Z,90.10
2018-07-12T12:02:31.197Z,90.50
2018-07-12T12:05:01.016Z,90.60
2018-07-12T12:07:30.893Z,89.90
2018-07-12T12:12:31.220Z,90.10
2018-07-12T12:15:01.604Z,89.60
2018-07-12T12:17:31.919Z,90.10
2018-07-12T12:20:02.322Z,89.50
2018-07-12T12:22:32.990Z,87.90
2018-07-12T12:25:03.745Z,86.80
2018-07-12T12:27:34.593Z,87.50
2018-07-12T12:30:05.302Z,85.30
2018-07-12T12:32:36.011Z,86.40
2018-07-12T12:35:05.496Z,84.10
2018-07-12T12:37:34.997Z,86.30
2018-07-12T12:40:04.954Z,80.20
2018-07-12T12:42:35.152Z,81.40
2018-07-12T12:45:05.453Z,80.10
2018-07-12T12:47:36.340Z,79.40
2018-07-12T12:50:07.619Z,80.50
2018-07-12T12:52:37.142Z,79.80
2018-07-12T12:55:07.194Z,75.90
2018-07-12T12:57:36.858Z,74.00
2018-07-12T13:00:07.050Z,74.00
2018-07-12T13:02:36.935Z,73.30
2018-07-12T13:05:07.153Z,73.80
2018-07-12T13:07:37.545Z,71.20
2018-07-12T13:10:08.818Z,72.90
2018-07-12T13:12:39.198Z,68.90
2018-07-12T13:15:09.173Z,70.10
2018-07-12T13:17:39.581Z,69.20
2018-07-12T13:20:09.814Z,70.10
2018-07-12T13:22:39.875Z,73.60
2018-07-12T13:25:09.961Z,73.80
2018-07-12T13:27:40.251Z,74.60
2018-07-12T13:30:10.550Z,76.10
2018-07-12T13:32:41.461Z,76.20
2018-07-12T13:35:11.203Z,77.90
2018-07-12T13:37:40.632Z,78.10
2018-07-12T13:40:10.828Z,78.60
2018-07-12T13:42:42.010Z,77.50
2018-07-12T13:45:12.058Z,76.60
2018-07-12T13:47:41.942Z,77.00
2018-07-12T13:50:11.790Z,69.90
2018-07-12T13:52:40.918Z,71.00
2018-07-12T13:55:11.069Z,72.80
2018-07-12T13:57:42.091Z,70.40
2018-07-12T14:00:12.494Z,66.70
2018-07-12T14:02:42.846Z,62.90
2018-07-12T14:05:13.737Z,63.30
2018-07-12T14:07:44.734Z,63.90
2018-07-12T14:10:15.870Z,67.30
2018-07-12T14:12:46.826Z,67.60
2018-07-12T14:15:16.478Z,68.20
2018-07-12T14:17:47.114Z,68.30
2018-07-12T14:20:16.798Z,69.80
2018-07-12T14:22:46.746Z,68.70
2018-07-12T14:25:17.506Z,68.20
2018-07-12T14:27:48.491Z,68.40
2018-07-12T14:30:18.677Z,64.60
2018-07-12T14:32:48.305Z,64.50
2018-07-12T14:35:17.769Z,65.90
2018-07-12T14:37:48.454Z,66.00
2018-07-12T14:40:17.969Z,61.60
2018-07-12T14:42:47.631Z,55.30
2018-07-12T14:45:17.827Z,51.90
2018-07-12T14:47:48.342Z,50.90
2018-07-12T14:50:18.326Z,46.00
2018-07-12T14:52:47.986Z,44.00
2018-07-12T14:55:17.732Z,44.40
2018-07-12T14:57:48.546Z,43.90
2018-07-12T15:00:18.173Z,44.90
2018-07-12T15:02:49.060Z,42.70
2018-07-12T15:05:18.985Z,43.30
2018-07-12T15:07:48.401Z,42.80
2018-07-12T15:10:17.681Z,42.20
2018-07-12T15:12:48.339Z,43.20
2018-07-12T15:15:19.437Z,39.40
2018-07-12T15:17:49.369Z,39.90
2018-07-12T15:22:49.706Z,38.10
2018-07-12T15:25:21.136Z,38.90
2018-07-12T15:27:51.537Z,39.00
2018-07-12T15:30:21.654Z,37.50
2018-07-12T15:32:51.705Z,35.70
2018-07-12T15:35:21.006Z,35.30
2018-07-12T15:37:52.339Z,34.90
2018-07-12T15:40:22.438Z,35.00
2018-07-12T15:42:53.011Z,35.70
2018-07-12T15:45:22.896Z,36.30
2018-07-12T15:47:54.194Z,36.60
2018-07-12T15:50:26.811Z,36.30
2018-07-12T15:52:57.108Z,36.90
2018-07-12T15:55:27.063Z,37.90
2018-07-12T15:57:56.984Z,39.30
2018-07-12T16:00:27.438Z,40.50
2018-07-12T16:02:59.454Z,42.70
2018-07-12T16:05:29.674Z,43.50
2018-07-12T16:07:59.827Z,44.20
2018-07-12T16:10:30.341Z,47.20
2018-07-12T16:13:01.540Z,47.10
2018-07-12T16:15:32.375Z,47.70
2018-07-12T16:18:02.246Z,43.20
2018-07-12T16:20:32.487Z,43.70
2018-07-12T16:23:03.095Z,43.90
2018-07-12T16:25:33.331Z,42.50
2018-07-12T16:28:03.036Z,43.70
2018-07-12T16:30:33.478Z,44.00
2018-07-12T16:33:04.370Z,45.50
2018-07-12T16:38:05.435Z,46.30
2018-07-12T16:40:35.855Z,45.80
2018-07-12T16:43:05.890Z,45.50
2018-07-12T16:45:36.042Z,47.90
2018-07-12T16:48:06.422Z,48.30
2018-07-12T16:50:36.805Z,49.20
2018-07-12T16:53:06.709Z,49.70
2018-07-12T16:55:36.957Z,50.40
2018-07-12T16:58:07.442Z,53.50
2018-07-12T17:00:39.008Z,54.20
2018-07-12T17:03:08.863Z,58.90
2018-07-12T17:05:39.386Z,59.60
2018-07-12T17:10:38.673Z,66.50
2018-07-12T17:13:07.869Z,71.50
2018-07-12T17:15:37.722Z,71.90
2018-07-12T17:18:08.363Z,75.20
2018-07-12T17:20:38.006Z,79.70
2018-07-12T17:23:08.678Z,81.60
2018-07-12T17:25:39.278Z,82.40
2018-07-12T17:28:09.098Z,85.90
2018-07-12T17:30:38.722Z,90.30
2018-07-12T17:33:09.629Z,90.30
2018-07-12T17:35:41.239Z,93.80
2018-07-12T17:38:10.783Z,92.90
2018-07-12T17:40:40.850Z,92.80
2018-07-12T17:43:11.442Z,96.80
2018-07-12T17:45:42.728Z,95.20
2018-07-12T17:48:12.362Z,94.50
2018-07-12T17:50:41.443Z,96.00
2018-07-12T17:53:11.372Z,95.40
2018-07-12T17:55:41.460Z,94.50
2018-07-12T17:58:11.915Z,94.60
2018-07-12T18:00:41.923Z,94.20
2018-07-12T18:03:13.395Z,94.80
2018-07-12T18:05:44.278Z,94.00
2018-07-12T18:08:14.790Z,98.10
2018-07-12T18:10:43.978Z,96.30
2018-07-12T18:13:15.071Z,93.70
2018-07-12T18:15:45.312Z,93.80
2018-07-12T18:18:16.283Z,93.80
2018-07-12T18:20:46.858Z,94.00
2018-07-12T18:23:17.146Z,93.80
2018-07-12T18:25:47.775Z,94.10
2018-07-12T18:28:18.270Z,94.70
2018-07-12T18:30:48.490Z,95.40
2018-07-12T18:33:19.632Z,95.70
2018-07-12T18:35:50.178Z,95.20
2018-07-12T18:38:20.447Z,95.80
2018-07-12T18:40:50.457Z,94.70
2018-07-12T18:43:20.346Z,93.80
2018-07-12T18:45:51.676Z,94.10
2018-07-12T18:53:21.782Z,94.90
2018-07-12T18:55:51.358Z,94.80
2018-07-12T18:58:21.170Z,94.70
2018-07-12T19:00:50.759Z,94.90
2018-07-12T19:03:23.143Z,95.30
2018-07-12T19:05:53.019Z,94.40
2018-07-12T19:08:23.362Z,94.40
2018-07-12T19:13:22.789Z,94.80
2018-07-12T19:15:52.694Z,94.90
2018-07-12T19:18:22.790Z,95.30
2018-07-12T19:20:53.116Z,95.70
2018-07-12T19:23:22.778Z,96.00
2018-07-12T19:25:53.758Z,95.40
2018-07-12T19:28:23.134Z,94.90
2018-07-12T19:30:52.638Z,95.30
2018-07-12T19:33:22.866Z,95.40
2018-07-12T19:35:53.654Z,95.80
2018-07-12T19:38:24.981Z,96.10
2018-07-12T19:40:55.154Z,96.70
2018-07-12T19:43:24.717Z,96.80
2018-07-12T19:45:54.519Z,96.60
2018-07-12T19:48:26.216Z,97.00
2018-07-12T19:50:55.868Z,96.70
2018-07-12T19:53:26.838Z,97.10
2018-07-12T19:55:57.562Z,97.10
2018-07-12T19:58:28.818Z,97.40
2018-07-12T20:00:58.770Z,97.80
2018-07-12T20:03:28.746Z,98.10
2018-07-12T20:05:58.458Z,99.20
2018-07-12T20:08:28.534Z,98.80
2018-07-12T20:10:58.710Z,99.10
2018-07-12T20:13:28.971Z,99.40
2018-07-12T20:15:59.271Z,99.70
2018-07-12T20:18:29.846Z,99.90
2018-07-12T20:20:59.358Z,99.90
2018-07-12T20:23:29.227Z,99.90
2018-07-12T20:28:29.350Z,99.90
2018-07-12T20:30:59.176Z,99.90
2018-07-12T20:33:28.382Z,99.90
2018-07-12T20:35:58.102Z,99.90
2018-07-12T20:38:27.590Z,99.90
2018-07-12T20:40:57.588Z,99.90
2018-07-12T20:43:27.056Z,99.90
2018-07-12T20:45:57.165Z,99.90
2018-07-12T20:48:26.718Z,99.90
2018-07-12T20:50:56.762Z,99.90
2018-07-12T20:53:27.014Z,99.90
2018-07-12T20:55:56.699Z,99.90
2018-07-12T20:58:26.939Z,99.90
2018-07-12T21:00:57.579Z,99.90
2018-07-12T21:03:29.605Z,99.90
2018-07-12T21:05:59.446Z,99.90
2018-07-12T21:08:28.897Z,99.90
2018-07-12T21:10:58.804Z,99.90
2018-07-12T21:13:29.442Z,99.90
2018-07-12T21:16:00.306Z,99.90
2018-07-12T21:18:31.571Z,99.90
2018-07-12T21:21:01.354Z,99.90
2018-07-12T21:23:31.722Z,99.90
2018-07-12T21:26:01.619Z,99.90
2018-07-12T21:28:31.302Z,99.90
2018-07-12T21:31:01.841Z,99.90
2018-07-12T21:33:31.693Z,99.90
2018-07-12T21:41:03.535Z,99.90
2018-07-12T21:43:35.190Z,99.90
2018-07-12T21:46:05.706Z,99.90
2018-07-12T21:48:35.517Z,99.90
2018-07-12T21:51:04.634Z,99.90
2018-07-12T21:53:34.762Z,99.90
2018-07-12T21:56:05.623Z,99.90
2018-07-12T21:58:35.400Z,99.90
2018-07-12T22:01:05.352Z,99.90
2018-07-12T22:03:35.515Z,99.90
2018-07-12T22:06:05.074Z,99.90
2018-07-12T22:08:34.871Z,99.90
2018-07-12T22:11:06.973Z,99.90
2018-07-12T22:13:38.123Z,99.90
2018-07-12T22:16:07.227Z,99.90
2018-07-12T22:18:38.242Z,99.90
2018-07-12T22:21:08.429Z,99.90
2018-07-12T22:23:38.618Z,99.90
2018-07-12T22:26:09.235Z,99.90
2018-07-12T22:28:38.374Z,99.90
2018-07-12T22:33:38.707Z,99.90
2018-07-12T22:36:09.458Z,99.90
2018-07-12T22:38:39.317Z,99.90
2018-07-12T22:41:10.406Z,99.90
2018-07-12T22:43:41.090Z,99.90
2018-07-12T22:46:12.075Z,99.90
2018-07-12T22:48:42.678Z,99.90
2018-07-12T22:51:13.429Z,99.90
2018-07-12T22:53:42.878Z,99.90
2018-07-12T22:56:12.490Z,99.90
2018-07-12T22:58:43.335Z,99.90
2018-07-12T23:01:13.846Z,99.90
2018-07-12T23:03:44.098Z,99.90
2018-07-12T23:06:14.610Z,99.90
2018-07-12T23:08:44.551Z,99.90
2018-07-12T23:11:15.330Z,99.90
2018-07-12T23:13:45.603Z,99.90
2018-07-12T23:16:15.818Z,99.90
2018-07-12T23:18:45.854Z,99.90
2018-07-12T23:21:16.286Z,99.90
2018-07-12T23:23:45.579Z,99.90
2018-07-12T23:26:15.083Z,99.90
2018-07-12T23:28:45.098Z,99.90
2018-07-12T23:31:14.413Z,99.90
2018-07-12T23:33:44.943Z,99.90
2018-07-12T23:36:14.958Z,99.90
2018-07-12T23:38:44.930Z,99.90
2018-07-12T23:41:15.390Z,99.90
2018-07-12T23:43:45.475Z,99.90
2018-07-12T23:46:15.358Z,99.90
2018-07-12T23:48:45.699Z,99.90
2018-07-12T23:51:15.484Z,99.90
2018-07-12T23:53:45.442Z,99.90
2018-07-12T23:56:15.283Z,99.90
2018-07-12T23:58:44.493Z,99.90
